sensor_id;sensor_type;location;lat;lon;timestamp;temperature;humidity
9006;DHT22;62284;50.702;7.140;2022-10-16T00:00:38;15.00;99.90
9006;DHT22;62284;50.702;7.140;2022-10-16T00:03:06;15.00;99.90
9006;DHT22;62284;50.702;7.140;2022-10-16T00:05:38;15.00;99.90
9006;DHT22;62284;50.702;7.140;2022-10-16T00:08:05;15.00;99.90
9006;DHT22;62284;50.702;7.140;2022-10-16T00:10:33;15.00;99.90
9006;DHT22;62284;50.702;7.140;2022-10-16T00:13:02;15.00;99.90
9006;DHT22;62284;50.702;7.140;2022-10-16T00:15:29;15.00;99.90
9006;DHT22;62284;50.702;7.140;2022-10-16T00:17:56;15.00;99.90
9006;DHT22;62284;50.702;7.140;2022-10-16T00:20:22;15.00;99.90
9006;DHT22;62284;50.702;7.140;2022-10-16T00:22:49;15.00;99.90
9006;DHT22;62284;50.702;7.140;2022-10-16T00:25:16;15.00;99.90
9006;DHT22;62284;50.702;7.140;2022-10-16T00:27:43;15.00;99.90
9006;DHT22;62284;50.702;7.140;2022-10-16T00:30:12;15.00;99.90
9006;DHT22;62284;50.702;7.140;2022-10-16T00:32:39;15.00;99.90
9006;DHT22;62284;50.702;7.140;2022-10-16T00:35:06;15.00;99.90
9006;DHT22;62284;50.702;7.140;2022-10-16T00:37:33;15.00;99.90
9006;DHT22;62284;50.702;7.140;2022-10-16T00:40:00;15.00;99.90
9006;DHT22;62284;50.702;7.140;2022-10-16T00:42:27;15.00;99.90
9006;DHT22;62284;50.702;7.140;2022-10-16T00:44:55;15.10;99.90
9006;DHT22;62284;50.702;7.140;2022-10-16T00:47:27;15.10;99.90
9006;DHT22;62284;50.702;7.140;2022-10-16T00:49:59;15.10;99.90
9006;DHT22;62284;50.702;7.140;2022-10-16T00:52:26;15.10;99.90
9006;DHT22;62284;50.702;7.140;2022-10-16T00:54:54;15.10;99.90
9006;DHT22;62284;50.702;7.140;2022-10-16T00:57:22;15.10;99.90
9006;DHT22;62284;50.702;7.140;2022-10-16T00:59:49;15.00;99.90
9006;DHT22;62284;50.702;7.140;2022-10-16T01:02:17;15.10;99.90
9006;DHT22;62284;50.702;7.140;2022-10-16T01:04:47;15.10;99.90
9006;DHT22;62284;50.702;7.140;2022-10-16T01:07:20;15.10;99.90
9006;DHT22;62284;50.702;7.140;2022-10-16T01:10:03;15.10;99.90
9006;DHT22;62284;50.702;7.140;2022-10-16T01:12:38;15.10;99.90
9006;DHT22;62284;50.702;7.140;2022-10-16T01:15:10;15.00;99.90
9006;DHT22;62284;50.702;7.140;2022-10-16T01:17:43;15.10;99.90
9006;DHT22;62284;50.702;7.140;2022-10-16T01:20:20;15.10;99.90
9006;DHT22;62284;50.702;7.140;2022-10-16T01:23:01;15.10;99.90
9006;DHT22;62284;50.702;7.140;2022-10-16T01:25:49;15.00;99.90
9006;DHT22;62284;50.702;7.140;2022-10-16T01:28:22;15.10;99.90
9006;DHT22;62284;50.702;7.140;2022-10-16T01:30:53;15.00;99.90
9006;DHT22;62284;50.702;7.140;2022-10-16T01:33:24;14.90;99.90
9006;DHT22;62284;50.702;7.140;2022-10-16T01:35:54;14.90;99.90
9006;DHT22;62284;50.702;7.140;2022-10-16T01:38:27;14.90;99.90
9006;DHT22;62284;50.702;7.140;2022-10-16T01:40:59;14.80;99.90
9006;DHT22;62284;50.702;7.140;2022-10-16T01:43:32;14.70;99.90
9006;DHT22;62284;50.702;7.140;2022-10-16T01:46:00;14.60;99.90
9006;DHT22;62284;50.702;7.140;2022-10-16T01:48:29;14.50;99.90
9006;DHT22;62284;50.702;7.140;2022-10-16T01:51:00;14.40;99.90
9006;DHT22;62284;50.702;7.140;2022-10-16T01:53:29;14.40;99.90
9006;DHT22;62284;50.702;7.140;2022-10-16T01:55:58;14.30;99.90
9006;DHT22;62284;50.702;7.140;2022-10-16T01:58:29;14.30;99.90
9006;DHT22;62284;50.702;7.140;2022-10-16T02:01:00;14.40;99.90
9006;DHT22;62284;50.702;7.140;2022-10-16T02:03:28;14.40;99.90
9006;DHT22;62284;50.702;7.140;2022-10-16T02:05:56;14.40;99.90
9006;DHT22;62284;50.702;7.140;2022-10-16T02:08:26;14.40;99.90
9006;DHT22;62284;50.702;7.140;2022-10-16T02:10:55;14.40;99.90
9006;DHT22;62284;50.702;7.140;2022-10-16T02:13:25;14.40;99.90
9006;DHT22;62284;50.702;7.140;2022-10-16T02:15:54;14.50;99.90
9006;DHT22;62284;50.702;7.140;2022-10-16T02:18:21;14.60;99.90
9006;DHT22;62284;50.702;7.140;2022-10-16T02:20:51;14.60;99.90
9006;DHT22;62284;50.702;7.140;2022-10-16T02:23:24;14.70;99.90
9006;DHT22;62284;50.702;7.140;2022-10-16T02:25:54;14.80;99.90
9006;DHT22;62284;50.702;7.140;2022-10-16T02:28:24;14.80;99.90
9006;DHT22;62284;50.702;7.140;2022-10-16T02:30:57;14.80;99.90
9006;DHT22;62284;50.702;7.140;2022-10-16T02:33:25;14.90;99.90
9006;DHT22;62284;50.702;7.140;2022-10-16T02:35:53;14.90;99.90
9006;DHT22;62284;50.702;7.140;2022-10-16T02:38:21;15.00;99.90
9006;DHT22;62284;50.702;7.140;2022-10-16T02:40:49;15.00;99.90
9006;DHT22;62284;50.702;7.140;2022-10-16T02:43:16;15.00;99.90
9006;DHT22;62284;50.702;7.140;2022-10-16T02:45:43;15.10;99.90
9006;DHT22;62284;50.702;7.140;2022-10-16T02:48:12;15.20;99.90
9006;DHT22;62284;50.702;7.140;2022-10-16T02:50:38;15.10;99.90
9006;DHT22;62284;50.702;7.140;2022-10-16T02:53:05;15.20;99.90
9006;DHT22;62284;50.702;7.140;2022-10-16T02:55:32;15.10;99.90
9006;DHT22;62284;50.702;7.140;2022-10-16T02:57:59;15.10;99.90
9006;DHT22;62284;50.702;7.140;2022-10-16T03:00:26;15.10;99.90
9006;DHT22;62284;50.702;7.140;2022-10-16T03:02:54;15.10;99.90
9006;DHT22;62284;50.702;7.140;2022-10-16T03:05:22;15.10;99.90
9006;DHT22;62284;50.702;7.140;2022-10-16T03:07:49;15.10;99.90
9006;DHT22;62284;50.702;7.140;2022-10-16T03:10:15;15.10;99.90
9006;DHT22;62284;50.702;7.140;2022-10-16T03:12:42;15.10;99.90
9006;DHT22;62284;50.702;7.140;2022-10-16T03:15:09;15.10;99.90
9006;DHT22;62284;50.702;7.140;2022-10-16T03:17:36;15.20;99.90
9006;DHT22;62284;50.702;7.140;2022-10-16T03:20:04;15.20;99.90
9006;DHT22;62284;50.702;7.140;2022-10-16T03:22:32;15.10;99.90
9006;DHT22;62284;50.702;7.140;2022-10-16T03:24:59;15.10;99.90
9006;DHT22;62284;50.702;7.140;2022-10-16T03:27:26;15.20;99.90
9006;DHT22;62284;50.702;7.140;2022-10-16T03:29:53;15.10;99.90
9006;DHT22;62284;50.702;7.140;2022-10-16T03:32:20;15.20;99.90
9006;DHT22;62284;50.702;7.140;2022-10-16T03:34:47;15.20;99.90
9006;DHT22;62284;50.702;7.140;2022-10-16T03:37:14;15.20;99.90
9006;DHT22;62284;50.702;7.140;2022-10-16T03:39:42;15.30;99.90
9006;DHT22;62284;50.702;7.140;2022-10-16T03:42:09;15.30;99.90
9006;DHT22;62284;50.702;7.140;2022-10-16T03:44:36;15.30;99.90
9006;DHT22;62284;50.702;7.140;2022-10-16T03:47:02;15.30;99.90
9006;DHT22;62284;50.702;7.140;2022-10-16T03:49:29;15.30;99.90
9006;DHT22;62284;50.702;7.140;2022-10-16T03:51:56;15.30;99.90
9006;DHT22;62284;50.702;7.140;2022-10-16T03:54:23;15.30;99.90
9006;DHT22;62284;50.702;7.140;2022-10-16T03:56:51;15.40;99.90
9006;DHT22;62284;50.702;7.140;2022-10-16T03:59:18;15.30;99.90
9006;DHT22;62284;50.702;7.140;2022-10-16T04:01:45;15.40;99.90
9006;DHT22;62284;50.702;7.140;2022-10-16T04:04:12;15.40;99.90
9006;DHT22;62284;50.702;7.140;2022-10-16T04:06:39;15.40;99.90
9006;DHT22;62284;50.702;7.140;2022-10-16T04:09:05;15.40;99.90
9006;DHT22;62284;50.702;7.140;2022-10-16T04:11:32;15.40;99.90
9006;DHT22;62284;50.702;7.140;2022-10-16T04:14:01;15.40;99.90
9006;DHT22;62284;50.702;7.140;2022-10-16T04:16:28;15.50;99.90
9006;DHT22;62284;50.702;7.140;2022-10-16T04:18:54;15.50;99.90
9006;DHT22;62284;50.702;7.140;2022-10-16T04:21:21;15.50;99.90
9006;DHT22;62284;50.702;7.140;2022-10-16T04:23:48;15.50;99.90
9006;DHT22;62284;50.702;7.140;2022-10-16T04:26:15;15.50;99.90
9006;DHT22;62284;50.702;7.140;2022-10-16T04:28:42;15.60;99.90
9006;DHT22;62284;50.702;7.140;2022-10-16T04:31:11;15.60;99.90
9006;DHT22;62284;50.702;7.140;2022-10-16T04:33:37;15.60;99.90
9006;DHT22;62284;50.702;7.140;2022-10-16T04:36:05;15.50;99.90
9006;DHT22;62284;50.702;7.140;2022-10-16T04:38:32;15.50;99.90
9006;DHT22;62284;50.702;7.140;2022-10-16T04:40:58;15.50;99.90
9006;DHT22;62284;50.702;7.140;2022-10-16T04:43:26;15.50;99.90
9006;DHT22;62284;50.702;7.140;2022-10-16T04:45:53;15.50;99.90
9006;DHT22;62284;50.702;7.140;2022-10-16T04:48:21;15.50;99.90
9006;DHT22;62284;50.702;7.140;2022-10-16T04:50:48;15.50;99.90
9006;DHT22;62284;50.702;7.140;2022-10-16T04:53:15;15.50;99.90
9006;DHT22;62284;50.702;7.140;2022-10-16T04:55:42;15.50;99.90
9006;DHT22;62284;50.702;7.140;2022-10-16T04:58:09;15.50;99.90
9006;DHT22;62284;50.702;7.140;2022-10-16T05:00:36;15.50;99.90
9006;DHT22;62284;50.702;7.140;2022-10-16T05:03:04;15.60;99.90
9006;DHT22;62284;50.702;7.140;2022-10-16T05:05:34;15.50;99.90
9006;DHT22;62284;50.702;7.140;2022-10-16T05:08:01;15.60;99.90
9006;DHT22;62284;50.702;7.140;2022-10-16T05:10:28;15.50;99.90
9006;DHT22;62284;50.702;7.140;2022-10-16T05:12:55;15.60;99.90
9006;DHT22;62284;50.702;7.140;2022-10-16T05:15:22;15.60;99.90
9006;DHT22;62284;50.702;7.140;2022-10-16T05:17:52;15.60;99.90
9006;DHT22;62284;50.702;7.140;2022-10-16T05:20:19;15.60;99.90
9006;DHT22;62284;50.702;7.140;2022-10-16T05:22:48;15.60;99.90
9006;DHT22;62284;50.702;7.140;2022-10-16T05:25:15;15.70;99.90
9006;DHT22;62284;50.702;7.140;2022-10-16T05:27:42;15.60;99.90
9006;DHT22;62284;50.702;7.140;2022-10-16T05:30:09;15.60;99.90
9006;DHT22;62284;50.702;7.140;2022-10-16T05:32:36;15.50;99.90
9006;DHT22;62284;50.702;7.140;2022-10-16T05:35:04;15.50;99.90
9006;DHT22;62284;50.702;7.140;2022-10-16T05:37:31;15.50;99.90
9006;DHT22;62284;50.702;7.140;2022-10-16T05:39:59;15.50;99.90
9006;DHT22;62284;50.702;7.140;2022-10-16T05:42:26;15.50;99.90
9006;DHT22;62284;50.702;7.140;2022-10-16T05:44:53;15.50;99.90
9006;DHT22;62284;50.702;7.140;2022-10-16T05:47:20;15.60;99.90
9006;DHT22;62284;50.702;7.140;2022-10-16T05:49:47;15.60;99.90
9006;DHT22;62284;50.702;7.140;2022-10-16T05:52:14;15.60;99.90
9006;DHT22;62284;50.702;7.140;2022-10-16T05:54:41;15.70;99.90
9006;DHT22;62284;50.702;7.140;2022-10-16T05:57:09;15.60;99.90
9006;DHT22;62284;50.702;7.140;2022-10-16T05:59:36;15.70;99.90
9006;DHT22;62284;50.702;7.140;2022-10-16T06:02:03;15.60;99.90
9006;DHT22;62284;50.702;7.140;2022-10-16T06:04:30;15.70;99.90
9006;DHT22;62284;50.702;7.140;2022-10-16T06:06:58;15.70;99.90
9006;DHT22;62284;50.702;7.140;2022-10-16T06:09:26;15.70;99.90
9006;DHT22;62284;50.702;7.140;2022-10-16T06:11:53;15.70;99.90
9006;DHT22;62284;50.702;7.140;2022-10-16T06:14:21;15.80;99.90
9006;DHT22;62284;50.702;7.140;2022-10-16T06:16:48;15.80;99.90
9006;DHT22;62284;50.702;7.140;2022-10-16T06:19:15;15.80;99.90
9006;DHT22;62284;50.702;7.140;2022-10-16T06:21:43;15.70;99.90
9006;DHT22;62284;50.702;7.140;2022-10-16T06:24:10;15.80;99.90
9006;DHT22;62284;50.702;7.140;2022-10-16T06:26:37;15.80;99.90
9006;DHT22;62284;50.702;7.140;2022-10-16T06:29:04;15.90;99.90
9006;DHT22;62284;50.702;7.140;2022-10-16T06:31:33;15.90;99.90
9006;DHT22;62284;50.702;7.140;2022-10-16T06:34:00;15.90;99.90
9006;DHT22;62284;50.702;7.140;2022-10-16T06:36:28;15.90;99.90
9006;DHT22;62284;50.702;7.140;2022-10-16T06:38:55;16.00;99.90
9006;DHT22;62284;50.702;7.140;2022-10-16T06:41:23;15.90;99.90
9006;DHT22;62284;50.702;7.140;2022-10-16T06:43:50;16.00;99.90
9006;DHT22;62284;50.702;7.140;2022-10-16T06:46:20;15.90;99.90
9006;DHT22;62284;50.702;7.140;2022-10-16T06:48:48;15.90;99.90
9006;DHT22;62284;50.702;7.140;2022-10-16T06:51:16;15.90;99.90
9006;DHT22;62284;50.702;7.140;2022-10-16T06:53:45;15.90;99.90
9006;DHT22;62284;50.702;7.140;2022-10-16T06:56:16;16.00;99.90
9006;DHT22;62284;50.702;7.140;2022-10-16T06:58:44;16.00;99.90
9006;DHT22;62284;50.702;7.140;2022-10-16T07:01:12;16.00;99.90
9006;DHT22;62284;50.702;7.140;2022-10-16T07:03:40;16.10;99.90
9006;DHT22;62284;50.702;7.140;2022-10-16T07:06:09;16.10;99.90
9006;DHT22;62284;50.702;7.140;2022-10-16T07:08:38;16.20;99.90
9006;DHT22;62284;50.702;7.140;2022-10-16T07:11:07;16.20;99.90
9006;DHT22;62284;50.702;7.140;2022-10-16T07:13:34;16.30;99.90
9006;DHT22;62284;50.702;7.140;2022-10-16T07:16:04;16.30;99.90
9006;DHT22;62284;50.702;7.140;2022-10-16T07:18:32;16.30;99.90
9006;DHT22;62284;50.702;7.140;2022-10-16T07:21:03;16.20;99.90
9006;DHT22;62284;50.702;7.140;2022-10-16T07:23:32;16.40;99.90
9006;DHT22;62284;50.702;7.140;2022-10-16T07:25:59;16.50;99.90
9006;DHT22;62284;50.702;7.140;2022-10-16T07:28:26;16.60;99.90
9006;DHT22;62284;50.702;7.140;2022-10-16T07:30:53;16.60;99.90
9006;DHT22;62284;50.702;7.140;2022-10-16T07:33:20;16.70;99.90
9006;DHT22;62284;50.702;7.140;2022-10-16T07:35:48;16.70;99.90
9006;DHT22;62284;50.702;7.140;2022-10-16T07:38:15;16.80;99.90
9006;DHT22;62284;50.702;7.140;2022-10-16T07:40:43;16.80;99.90
9006;DHT22;62284;50.702;7.140;2022-10-16T07:43:10;16.90;99.90
9006;DHT22;62284;50.702;7.140;2022-10-16T07:45:45;16.90;99.90
9006;DHT22;62284;50.702;7.140;2022-10-16T07:48:12;16.90;99.90
9006;DHT22;62284;50.702;7.140;2022-10-16T07:50:39;17.00;99.90
9006;DHT22;62284;50.702;7.140;2022-10-16T07:53:06;17.00;99.90
9006;DHT22;62284;50.702;7.140;2022-10-16T07:55:33;17.10;99.90
9006;DHT22;62284;50.702;7.140;2022-10-16T07:58:01;17.10;99.90
9006;DHT22;62284;50.702;7.140;2022-10-16T08:00:28;17.30;99.90
9006;DHT22;62284;50.702;7.140;2022-10-16T08:02:56;17.40;99.90
9006;DHT22;62284;50.702;7.140;2022-10-16T08:05:25;17.40;99.90
9006;DHT22;62284;50.702;7.140;2022-10-16T08:07:52;17.40;99.90
9006;DHT22;62284;50.702;7.140;2022-10-16T08:10:20;17.40;99.90
9006;DHT22;62284;50.702;7.140;2022-10-16T08:12:48;17.40;99.90
9006;DHT22;62284;50.702;7.140;2022-10-16T08:15:16;17.40;99.90
9006;DHT22;62284;50.702;7.140;2022-10-16T08:17:43;17.40;99.90
9006;DHT22;62284;50.702;7.140;2022-10-16T08:20:11;17.40;99.90
9006;DHT22;62284;50.702;7.140;2022-10-16T08:22:38;17.30;99.90
9006;DHT22;62284;50.702;7.140;2022-10-16T08:25:05;17.40;99.90
9006;DHT22;62284;50.702;7.140;2022-10-16T08:27:32;17.30;99.90
9006;DHT22;62284;50.702;7.140;2022-10-16T08:29:59;17.30;99.90
9006;DHT22;62284;50.702;7.140;2022-10-16T08:32:27;17.30;99.90
9006;DHT22;62284;50.702;7.140;2022-10-16T08:34:54;17.30;99.90
9006;DHT22;62284;50.702;7.140;2022-10-16T08:37:21;17.50;99.90
9006;DHT22;62284;50.702;7.140;2022-10-16T08:39:47;17.70;99.90
9006;DHT22;62284;50.702;7.140;2022-10-16T08:42:22;17.90;99.90
9006;DHT22;62284;50.702;7.140;2022-10-16T08:45:07;18.10;99.90
9006;DHT22;62284;50.702;7.140;2022-10-16T08:47:45;18.30;99.90
9006;DHT22;62284;50.702;7.140;2022-10-16T08:50:21;18.50;99.90
9006;DHT22;62284;50.702;7.140;2022-10-16T08:52:49;18.90;99.90
9006;DHT22;62284;50.702;7.140;2022-10-16T08:55:28;19.00;99.90
9006;DHT22;62284;50.702;7.140;2022-10-16T08:57:57;19.30;99.90
9006;DHT22;62284;50.702;7.140;2022-10-16T09:00:25;19.30;99.90
9006;DHT22;62284;50.702;7.140;2022-10-16T09:03:01;19.40;99.90
9006;DHT22;62284;50.702;7.140;2022-10-16T09:05:49;19.50;99.90
9006;DHT22;62284;50.702;7.140;2022-10-16T09:08:24;19.60;99.90
9006;DHT22;62284;50.702;7.140;2022-10-16T09:10:57;19.80;99.90
9006;DHT22;62284;50.702;7.140;2022-10-16T09:13:29;19.70;99.90
9006;DHT22;62284;50.702;7.140;2022-10-16T09:16:04;19.70;99.90
9006;DHT22;62284;50.702;7.140;2022-10-16T09:18:43;19.80;99.70
9006;DHT22;62284;50.702;7.140;2022-10-16T09:21:15;19.90;99.70
9006;DHT22;62284;50.702;7.140;2022-10-16T09:23:45;19.80;99.40
9006;DHT22;62284;50.702;7.140;2022-10-16T09:26:13;19.80;99.30
9006;DHT22;62284;50.702;7.140;2022-10-16T09:28:41;19.80;99.70
9006;DHT22;62284;50.702;7.140;2022-10-16T09:31:13;19.80;99.20
9006;DHT22;62284;50.702;7.140;2022-10-16T09:33:44;19.70;98.80
9006;DHT22;62284;50.702;7.140;2022-10-16T09:36:12;19.60;99.10
9006;DHT22;62284;50.702;7.140;2022-10-16T09:38:40;19.50;99.70
9006;DHT22;62284;50.702;7.140;2022-10-16T09:41:15;19.50;99.30
9006;DHT22;62284;50.702;7.140;2022-10-16T09:43:48;19.60;99.40
9006;DHT22;62284;50.702;7.140;2022-10-16T09:46:25;19.60;99.40
9006;DHT22;62284;50.702;7.140;2022-10-16T09:48:55;19.70;99.40
9006;DHT22;62284;50.702;7.140;2022-10-16T09:51:25;19.80;99.20
9006;DHT22;62284;50.702;7.140;2022-10-16T09:53:55;20.10;98.80
9006;DHT22;62284;50.702;7.140;2022-10-16T09:56:24;20.20;98.20
9006;DHT22;62284;50.702;7.140;2022-10-16T09:58:52;20.60;97.90
9006;DHT22;62284;50.702;7.140;2022-10-16T10:01:19;21.20;99.90
9006;DHT22;62284;50.702;7.140;2022-10-16T10:03:46;21.30;99.90
9006;DHT22;62284;50.702;7.140;2022-10-16T10:06:21;21.80;99.90
9006;DHT22;62284;50.702;7.140;2022-10-16T10:09:16;22.60;99.30
9006;DHT22;62284;50.702;7.140;2022-10-16T10:11:48;23.60;97.60
9006;DHT22;62284;50.702;7.140;2022-10-16T10:14:19;25.50;94.20
9006;DHT22;62284;50.702;7.140;2022-10-16T10:16:47;26.60;84.70
9006;DHT22;62284;50.702;7.140;2022-10-16T10:19:16;26.80;82.80
9006;DHT22;62284;50.702;7.140;2022-10-16T10:21:45;26.40;80.50
9006;DHT22;62284;50.702;7.140;2022-10-16T10:24:13;26.40;81.30
9006;DHT22;62284;50.702;7.140;2022-10-16T10:26:48;28.30;76.30
9006;DHT22;62284;50.702;7.140;2022-10-16T10:29:25;29.90;62.70
9006;DHT22;62284;50.702;7.140;2022-10-16T10:32:02;30.10;75.00
9006;DHT22;62284;50.702;7.140;2022-10-16T10:34:42;30.50;74.50
9006;DHT22;62284;50.702;7.140;2022-10-16T10:37:27;31.00;76.50
9006;DHT22;62284;50.702;7.140;2022-10-16T10:40:00;31.90;49.10
9006;DHT22;62284;50.702;7.140;2022-10-16T10:42:32;33.20;46.50
9006;DHT22;62284;50.702;7.140;2022-10-16T10:45:12;33.50;45.50
9006;DHT22;62284;50.702;7.140;2022-10-16T10:47:50;33.20;43.30
9006;DHT22;62284;50.702;7.140;2022-10-16T10:50:25;33.20;44.30
9006;DHT22;62284;50.702;7.140;2022-10-16T10:53:02;33.20;43.10
9006;DHT22;62284;50.702;7.140;2022-10-16T10:55:40;33.10;42.40
9006;DHT22;62284;50.702;7.140;2022-10-16T10:58:26;33.60;42.30
9006;DHT22;62284;50.702;7.140;2022-10-16T11:01:01;33.70;42.40
9006;DHT22;62284;50.702;7.140;2022-10-16T11:03:41;33.90;42.10
9006;DHT22;62284;50.702;7.140;2022-10-16T11:06:12;34.80;41.10
9006;DHT22;62284;50.702;7.140;2022-10-16T11:08:48;34.30;39.30
9006;DHT22;62284;50.702;7.140;2022-10-16T11:11:23;34.50;40.60
9006;DHT22;62284;50.702;7.140;2022-10-16T11:13:57;34.80;40.20
9006;DHT22;62284;50.702;7.140;2022-10-16T11:16:28;34.70;37.60
9006;DHT22;62284;50.702;7.140;2022-10-16T11:19:01;32.80;40.20
9006;DHT22;62284;50.702;7.140;2022-10-16T11:21:34;33.40;39.70
9006;DHT22;62284;50.702;7.140;2022-10-16T11:24:11;34.20;39.10
9006;DHT22;62284;50.702;7.140;2022-10-16T11:26:42;34.90;38.30
9006;DHT22;62284;50.702;7.140;2022-10-16T11:29:13;35.50;37.90
9006;DHT22;62284;50.702;7.140;2022-10-16T11:31:47;34.20;37.20
9006;DHT22;62284;50.702;7.140;2022-10-16T11:34:21;32.10;44.60
9006;DHT22;62284;50.702;7.140;2022-10-16T11:36:51;30.10;56.70
9006;DHT22;62284;50.702;7.140;2022-10-16T11:39:24;28.50;69.90
9006;DHT22;62284;50.702;7.140;2022-10-16T11:44:33;27.00;49.60
9006;DHT22;62284;50.702;7.140;2022-10-16T11:47:09;26.80;50.50
9006;DHT22;62284;50.702;7.140;2022-10-16T11:49:40;27.00;50.80
9006;DHT22;62284;50.702;7.140;2022-10-16T11:52:12;27.00;50.40
9006;DHT22;62284;50.702;7.140;2022-10-16T11:54:47;27.60;49.90
9006;DHT22;62284;50.702;7.140;2022-10-16T11:57:20;26.90;50.10
9006;DHT22;62284;50.702;7.140;2022-10-16T11:59:52;26.50;51.60
9006;DHT22;62284;50.702;7.140;2022-10-16T12:02:38;26.50;52.30
9006;DHT22;62284;50.702;7.140;2022-10-16T12:05:18;26.30;51.90
9006;DHT22;62284;50.702;7.140;2022-10-16T12:07:51;26.40;53.10
9006;DHT22;62284;50.702;7.140;2022-10-16T12:10:25;27.30;51.10
9006;DHT22;62284;50.702;7.140;2022-10-16T12:12:53;27.50;50.60
9006;DHT22;62284;50.702;7.140;2022-10-16T12:15:23;27.00;50.30
9006;DHT22;62284;50.702;7.140;2022-10-16T12:17:50;26.40;51.60
9006;DHT22;62284;50.702;7.140;2022-10-16T12:20:27;26.30;52.20
9006;DHT22;62284;50.702;7.140;2022-10-16T12:22:56;26.20;52.40
9006;DHT22;62284;50.702;7.140;2022-10-16T12:25:27;25.70;53.30
9006;DHT22;62284;50.702;7.140;2022-10-16T12:27:57;25.70;54.80
9006;DHT22;62284;50.702;7.140;2022-10-16T12:30:26;25.50;54.50
9006;DHT22;62284;50.702;7.140;2022-10-16T12:32:55;25.50;54.70
9006;DHT22;62284;50.702;7.140;2022-10-16T12:35:25;25.50;55.00
9006;DHT22;62284;50.702;7.140;2022-10-16T12:37:53;25.70;54.80
9006;DHT22;62284;50.702;7.140;2022-10-16T12:40:28;25.50;54.30
9006;DHT22;62284;50.702;7.140;2022-10-16T12:42:56;25.20;55.70
9006;DHT22;62284;50.702;7.140;2022-10-16T12:45:29;24.90;57.80
9006;DHT22;62284;50.702;7.140;2022-10-16T12:47:58;24.70;56.80
9006;DHT22;62284;50.702;7.140;2022-10-16T12:50:34;24.90;56.60
9006;DHT22;62284;50.702;7.140;2022-10-16T12:53:03;24.70;57.50
9006;DHT22;62284;50.702;7.140;2022-10-16T12:55:41;24.50;58.20
9006;DHT22;62284;50.702;7.140;2022-10-16T12:58:31;24.30;58.10
9006;DHT22;62284;50.702;7.140;2022-10-16T13:01:09;24.20;59.40
9006;DHT22;62284;50.702;7.140;2022-10-16T13:04:18;24.50;59.50
9006;DHT22;62284;50.702;7.140;2022-10-16T13:06:53;25.00;58.30
9006;DHT22;62284;50.702;7.140;2022-10-16T13:09:43;26.20;57.00
9006;DHT22;62284;50.702;7.140;2022-10-16T13:12:25;27.90;52.90
9006;DHT22;62284;50.702;7.140;2022-10-16T13:15:21;28.80;50.10
9006;DHT22;62284;50.702;7.140;2022-10-16T13:17:57;29.20;48.60
9006;DHT22;62284;50.702;7.140;2022-10-16T13:20:32;28.40;50.20
9006;DHT22;62284;50.702;7.140;2022-10-16T13:23:06;27.10;51.70
9006;DHT22;62284;50.702;7.140;2022-10-16T13:25:48;26.20;53.10
9006;DHT22;62284;50.702;7.140;2022-10-16T13:28:27;25.40;54.90
9006;DHT22;62284;50.702;7.140;2022-10-16T13:30:57;25.00;56.20
9006;DHT22;62284;50.702;7.140;2022-10-16T13:33:30;24.60;57.90
9006;DHT22;62284;50.702;7.140;2022-10-16T13:35:58;24.70;58.00
9006;DHT22;62284;50.702;7.140;2022-10-16T13:38:26;24.80;58.00
9006;DHT22;62284;50.702;7.140;2022-10-16T13:40:56;24.80;58.50
9006;DHT22;62284;50.702;7.140;2022-10-16T13:43:34;24.80;58.10
9006;DHT22;62284;50.702;7.140;2022-10-16T13:46:04;24.70;58.70
9006;DHT22;62284;50.702;7.140;2022-10-16T13:48:32;24.50;58.70
9006;DHT22;62284;50.702;7.140;2022-10-16T13:51:07;24.60;58.90
9006;DHT22;62284;50.702;7.140;2022-10-16T13:53:38;24.90;58.50
9006;DHT22;62284;50.702;7.140;2022-10-16T13:56:09;25.00;58.80
9006;DHT22;62284;50.702;7.140;2022-10-16T13:58:37;25.60;58.20
9006;DHT22;62284;50.702;7.140;2022-10-16T14:01:06;26.00;58.20
9006;DHT22;62284;50.702;7.140;2022-10-16T14:03:42;26.00;56.80
9006;DHT22;62284;50.702;7.140;2022-10-16T14:06:13;25.40;57.90
9006;DHT22;62284;50.702;7.140;2022-10-16T14:08:43;25.30;58.70
9006;DHT22;62284;50.702;7.140;2022-10-16T14:11:11;24.90;60.00
9006;DHT22;62284;50.702;7.140;2022-10-16T14:13:44;24.70;61.60
9006;DHT22;62284;50.702;7.140;2022-10-16T14:16:16;24.40;63.70
9006;DHT22;62284;50.702;7.140;2022-10-16T14:18:49;24.10;65.40
9006;DHT22;62284;50.702;7.140;2022-10-16T14:21:19;24.00;67.00
9006;DHT22;62284;50.702;7.140;2022-10-16T14:23:46;23.90;67.80
9006;DHT22;62284;50.702;7.140;2022-10-16T14:26:19;23.70;68.80
9006;DHT22;62284;50.702;7.140;2022-10-16T14:28:49;23.60;70.40
9006;DHT22;62284;50.702;7.140;2022-10-16T14:31:29;23.70;71.70
9006;DHT22;62284;50.702;7.140;2022-10-16T14:33:57;23.60;71.20
9006;DHT22;62284;50.702;7.140;2022-10-16T14:36:25;23.70;71.90
9006;DHT22;62284;50.702;7.140;2022-10-16T14:38:58;23.70;72.20
9006;DHT22;62284;50.702;7.140;2022-10-16T14:41:26;23.70;74.00
9006;DHT22;62284;50.702;7.140;2022-10-16T14:43:55;23.70;74.40
9006;DHT22;62284;50.702;7.140;2022-10-16T14:46:30;23.70;75.90
9006;DHT22;62284;50.702;7.140;2022-10-16T14:49:03;23.70;76.60
9006;DHT22;62284;50.702;7.140;2022-10-16T14:51:31;23.50;77.80
9006;DHT22;62284;50.702;7.140;2022-10-16T14:53:58;23.40;79.70
9006;DHT22;62284;50.702;7.140;2022-10-16T14:56:29;23.30;80.30
9006;DHT22;62284;50.702;7.140;2022-10-16T14:58:57;23.40;81.90
9006;DHT22;62284;50.702;7.140;2022-10-16T15:01:24;23.30;82.60
9006;DHT22;62284;50.702;7.140;2022-10-16T15:03:51;23.20;83.20
9006;DHT22;62284;50.702;7.140;2022-10-16T15:06:20;23.10;84.40
9006;DHT22;62284;50.702;7.140;2022-10-16T15:08:49;22.90;85.70
9006;DHT22;62284;50.702;7.140;2022-10-16T15:11:17;22.80;86.80
9006;DHT22;62284;50.702;7.140;2022-10-16T15:13:45;22.70;87.80
9006;DHT22;62284;50.702;7.140;2022-10-16T15:16:15;22.60;88.80
9006;DHT22;62284;50.702;7.140;2022-10-16T15:18:42;22.60;90.40
9006;DHT22;62284;50.702;7.140;2022-10-16T15:21:15;22.50;90.40
9006;DHT22;62284;50.702;7.140;2022-10-16T15:23:48;22.40;91.30
9006;DHT22;62284;50.702;7.140;2022-10-16T15:26:15;22.10;91.60
9006;DHT22;62284;50.702;7.140;2022-10-16T15:28:42;22.00;92.70
9006;DHT22;62284;50.702;7.140;2022-10-16T15:31:09;22.00;93.80
9006;DHT22;62284;50.702;7.140;2022-10-16T15:33:37;22.00;95.30
9006;DHT22;62284;50.702;7.140;2022-10-16T15:36:04;21.80;97.60
9006;DHT22;62284;50.702;7.140;2022-10-16T15:38:31;21.80;97.00
9006;DHT22;62284;50.702;7.140;2022-10-16T15:40:58;21.70;97.70
9006;DHT22;62284;50.702;7.140;2022-10-16T15:43:25;21.70;97.70
9006;DHT22;62284;50.702;7.140;2022-10-16T15:45:59;21.60;99.20
9006;DHT22;62284;50.702;7.140;2022-10-16T15:48:27;21.60;98.60
9006;DHT22;62284;50.702;7.140;2022-10-16T15:50:55;21.40;98.60
9006;DHT22;62284;50.702;7.140;2022-10-16T15:53:22;21.40;98.80
9006;DHT22;62284;50.702;7.140;2022-10-16T15:55:49;21.30;97.30
9006;DHT22;62284;50.702;7.140;2022-10-16T15:58:16;21.20;97.70
9006;DHT22;62284;50.702;7.140;2022-10-16T16:00:43;21.10;98.50
9006;DHT22;62284;50.702;7.140;2022-10-16T16:03:10;21.10;99.90
9006;DHT22;62284;50.702;7.140;2022-10-16T16:05:38;21.00;99.90